createdAt,value
2022-11-24T00:01:48.489Z,97083.91
2022-11-24T00:04:20.308Z,97084.13
2022-11-24T00:06:49.605Z,97080.41
2022-11-24T00:09:18.705Z,97078.06
2022-11-24T00:11:47.899Z,97078.31
2022-11-24T00:14:17.062Z,97087.34
2022-11-24T00:16:46.334Z,97072.78
2022-11-24T00:19:19.529Z,97085.91
2022-11-24T00:21:49.165Z,97088.25
2022-11-24T00:24:18.840Z,97090.03
2022-11-24T00:26:48.110Z,97093.16
2022-11-24T00:29:17.406Z,97095.31
2022-11-24T00:31:46.646Z,97092.31
2022-11-24T00:34:15.911Z,97090.28
2022-11-24T00:36:45.114Z,97097.84
2022-11-24T00:39:15.963Z,97097.06
2022-11-24T00:41:45.394Z,97101.84
2022-11-24T00:44:14.576Z,97098.03
2022-11-24T00:46:43.852Z,97103.22
2022-11-24T00:49:13.092Z,97100.25
2022-11-24T00:51:42.557Z,97105.91
2022-11-24T00:54:11.762Z,97104.28
2022-11-24T00:56:40.881Z,97101.50
2022-11-24T00:59:10.059Z,97100.25
2022-11-24T01:01:39.345Z,97097.66
2022-11-24T01:04:08.890Z,97101.84
2022-11-24T01:06:38.086Z,97105.03
2022-11-24T01:09:07.290Z,97102.81
2022-11-24T01:11:54.801Z,97103.44
2022-11-24T01:14:25.209Z,97103.66
2022-11-24T01:16:55.135Z,97112.63
2022-11-24T01:19:24.335Z,97111.03
2022-11-24T01:21:53.532Z,97108.22
2022-11-24T01:24:23.023Z,97107.22
2022-11-24T01:26:52.340Z,97112.19
2022-11-24T01:29:21.538Z,97112.97
2022-11-24T01:31:50.731Z,97121.38
2022-11-24T01:34:19.896Z,97117.75
2022-11-24T01:36:49.108Z,97113.16
2022-11-24T01:39:18.362Z,97119.94
2022-11-24T01:41:47.757Z,97115.16
2022-11-24T01:44:28.150Z,97123.63
2022-11-24T01:47:00.345Z,97131.88
2022-11-24T01:49:38.548Z,97132.28
2022-11-24T01:52:15.423Z,97122.91
2022-11-24T01:54:53.063Z,97129.06
2022-11-24T01:57:26.388Z,97126.91
2022-11-24T02:00:01.903Z,97133.69
2022-11-24T02:02:44.929Z,97130.84
2022-11-24T02:05:19.800Z,97131.09
2022-11-24T02:07:50.019Z,97122.31
2022-11-24T02:10:19.428Z,97134.91
2022-11-24T02:12:51.551Z,97134.25
2022-11-24T02:15:21.312Z,97130.28
2022-11-24T02:17:50.443Z,97126.69
2022-11-24T02:20:20.013Z,97129.06
2022-11-24T02:22:56.512Z,97135.03
2022-11-24T02:25:31.648Z,97139.69
2022-11-24T02:28:05.533Z,97126.69
2022-11-24T02:30:35.914Z,97123.06
2022-11-24T02:33:05.314Z,97128.84
2022-11-24T02:35:34.759Z,97121.03
2022-11-24T02:38:03.928Z,97122.22
2022-11-24T02:40:33.471Z,97121.00
2022-11-24T02:43:09.409Z,97120.22
2022-11-24T02:45:38.766Z,97123.63
2022-11-24T02:48:08.433Z,97117.63
2022-11-24T02:50:37.860Z,97120.22
2022-11-24T02:53:07.141Z,97121.22
2022-11-24T02:55:36.284Z,97120.22
2022-11-24T02:58:05.487Z,97118.63
2022-11-24T03:00:34.681Z,97120.22
2022-11-24T03:03:04.161Z,97124.63
2022-11-24T03:05:33.420Z,97125.41
2022-11-24T03:08:02.764Z,97117.22
2022-11-24T03:10:31.972Z,97119.63
2022-11-24T03:13:01.156Z,97117.03
2022-11-24T03:15:30.587Z,97123.44
2022-11-24T03:17:59.850Z,97118.66
2022-11-24T03:20:29.261Z,97125.88
2022-11-24T03:22:58.459Z,97125.50
2022-11-24T03:25:27.568Z,97120.31
2022-11-24T03:27:58.484Z,97127.91
2022-11-24T03:30:27.794Z,97120.72
2022-11-24T03:32:56.924Z,97127.94
2022-11-24T03:35:26.219Z,97131.34
2022-11-24T03:37:55.336Z,97127.16
2022-11-24T03:40:24.567Z,97117.97
2022-11-24T03:42:53.687Z,97124.97
2022-11-24T03:48:12.126Z,97123.56
2022-11-24T03:50:41.372Z,97132.16
2022-11-24T03:53:10.987Z,97130.00
2022-11-24T03:55:40.151Z,97128.03
2022-11-24T03:58:09.261Z,97134.22
2022-11-24T04:00:38.438Z,97135.28
2022-11-24T04:03:07.743Z,97138.88
2022-11-24T04:05:37.522Z,97145.66
2022-11-24T04:08:07.184Z,97140.84
2022-11-24T04:10:37.855Z,97143.03
2022-11-24T04:13:16.330Z,97142.03
2022-11-24T04:15:46.035Z,97152.00
2022-11-24T04:18:15.424Z,97143.63
2022-11-24T04:20:44.793Z,97146.41
2022-11-24T04:23:14.161Z,97150.81
2022-11-24T04:25:43.831Z,97153.22
2022-11-24T04:28:14.368Z,97157.59
2022-11-24T04:30:45.121Z,97168.00
2022-11-24T04:33:14.676Z,97158.03
2022-11-24T04:35:43.839Z,97163.25
2022-11-24T04:38:13.003Z,97161.66
2022-11-24T04:41:05.782Z,97164.03
2022-11-24T04:43:40.291Z,97177.22
2022-11-24T04:46:11.768Z,97167.84
2022-11-24T04:48:42.299Z,97175.22
2022-11-24T04:51:13.663Z,97175.44
2022-11-24T04:53:42.888Z,97186.81
2022-11-24T04:56:11.996Z,97190.84
2022-11-24T04:58:41.233Z,97190.22
2022-11-24T05:01:10.381Z,97194.63
2022-11-24T05:03:40.275Z,97192.03
2022-11-24T05:06:09.673Z,97201.22
2022-11-24T05:08:38.881Z,97196.63
2022-11-24T05:11:08.276Z,97198.81
2022-11-24T05:13:37.437Z,97199.06
2022-11-24T05:16:06.928Z,97202.06
2022-11-24T05:18:36.085Z,97197.81
2022-11-24T05:21:05.243Z,97204.38
2022-11-24T05:23:34.449Z,97204.38
2022-11-24T05:26:04.224Z,97198.22
2022-11-24T05:28:33.683Z,97210.16
2022-11-24T05:31:03.700Z,97212.38
2022-11-24T05:33:33.551Z,97211.94
2022-11-24T05:36:05.257Z,97214.97
2022-11-24T05:38:35.536Z,97212.94
2022-11-24T05:41:05.990Z,97220.38
2022-11-24T05:43:35.117Z,97222.78
2022-11-24T05:46:04.242Z,97223.56
2022-11-24T05:48:33.386Z,97223.19
2022-11-24T05:51:07.898Z,97230.41
2022-11-24T05:53:38.365Z,97229.03
2022-11-24T05:56:07.830Z,97236.03
2022-11-24T05:58:36.982Z,97239.44
2022-11-24T06:01:07.486Z,97240.44
2022-11-24T06:03:36.615Z,97240.22
2022-11-24T06:06:05.859Z,97239.06
2022-11-24T06:08:35.235Z,97244.47
2022-11-24T06:11:17.604Z,97240.72
2022-11-24T06:13:48.727Z,97250.09
2022-11-24T06:16:18.247Z,97248.34
2022-11-24T06:18:47.396Z,97254.53
2022-11-24T06:21:17.315Z,97260.13
2022-11-24T06:23:49.623Z,97266.13
2022-11-24T06:26:18.761Z,97273.31
2022-11-24T06:28:47.897Z,97273.72
2022-11-24T06:31:17.092Z,97279.66
2022-11-24T06:33:47.077Z,97279.91
2022-11-24T06:36:16.534Z,97285.09
2022-11-24T06:38:45.724Z,97284.66
2022-11-24T06:41:16.467Z,97292.47
2022-11-24T06:43:46.355Z,97297.66
2022-11-24T06:46:15.591Z,97293.47
2022-11-24T06:48:44.807Z,97296.06
2022-11-24T06:51:14.206Z,97299.66
2022-11-24T06:53:43.343Z,97302.84
2022-11-24T06:56:19.493Z,97304.19
2022-11-24T06:58:50.591Z,97309.59
2022-11-24T07:01:24.858Z,97309.63
2022-11-24T07:03:55.209Z,97315.63
2022-11-24T07:06:26.363Z,97320.81
2022-11-24T07:08:56.522Z,97319.81
2022-11-24T07:11:25.746Z,97327.41
2022-11-24T07:13:59.696Z,97325.38
2022-11-24T07:16:29.680Z,97340.38
2022-11-24T07:18:59.181Z,97335.56
2022-11-24T07:21:30.621Z,97343.53
2022-11-24T07:23:59.774Z,97347.94
2022-11-24T07:26:28.924Z,97344.91
2022-11-24T07:28:59.976Z,97347.34
2022-11-24T07:31:29.167Z,97353.50
2022-11-24T07:33:58.300Z,97351.63
2022-11-24T07:36:27.537Z,97352.25
2022-11-24T07:38:56.702Z,97349.47
2022-11-24T07:41:25.830Z,97354.06
2022-11-24T07:43:55.691Z,97362.22
2022-11-24T07:46:24.962Z,97357.44
2022-11-24T07:48:54.137Z,97365.03
2022-11-24T07:51:23.278Z,97354.63
2022-11-24T07:53:52.446Z,97363.84
2022-11-24T07:56:21.547Z,97371.44
2022-11-24T07:58:53.124Z,97379.59
2022-11-24T08:01:23.011Z,97382.75
2022-11-24T08:03:52.280Z,97377.34
2022-11-24T08:06:26.231Z,97383.31
2022-11-24T08:08:58.133Z,97381.31
2022-11-24T08:11:28.147Z,97388.94
2022-11-24T08:13:57.381Z,97393.97
2022-11-24T08:16:26.543Z,97397.94
2022-11-24T08:18:56.188Z,97402.69
2022-11-24T08:21:25.906Z,97402.00
2022-11-24T08:23:56.251Z,97405.50
2022-11-24T08:26:26.152Z,97402.03
2022-11-24T08:28:57.745Z,97408.34
2022-11-24T08:31:33.661Z,97412.91
2022-11-24T08:34:04.103Z,97413.81
2022-11-24T08:36:34.052Z,97417.47
2022-11-24T08:39:03.439Z,97415.44
2022-11-24T08:41:33.313Z,97419.44
2022-11-24T08:44:02.467Z,97412.53
2022-11-24T08:46:31.698Z,97419.13
2022-11-24T08:49:00.885Z,97426.94
2022-11-24T08:51:30.120Z,97423.56
2022-11-24T08:54:01.319Z,97426.66
2022-11-24T08:56:32.352Z,97421.53
2022-11-24T08:59:02.473Z,97422.50
2022-11-24T09:01:31.936Z,97429.03
2022-11-24T09:06:27.854Z,97437.00
2022-11-24T09:08:57.746Z,97431.53
2022-11-24T09:11:27.808Z,97430.41
2022-11-24T09:13:57.051Z,97431.56
2022-11-24T09:16:29.073Z,97438.75
2022-11-24T09:19:01.162Z,97430.28
2022-11-24T09:21:32.041Z,97437.81
2022-11-24T09:24:01.235Z,97446.06
2022-11-24T09:26:32.569Z,97436.66
2022-11-24T09:29:04.880Z,97451.78
2022-11-24T09:31:37.312Z,97441.72
2022-11-24T09:34:09.148Z,97450.72
2022-11-24T09:36:38.388Z,97443.03
2022-11-24T09:39:07.971Z,97446.94
2022-11-24T09:41:50.504Z,97448.25
2022-11-24T09:44:37.915Z,97449.47
2022-11-24T09:47:21.738Z,97436.59
2022-11-24T09:50:10.055Z,97456.81
2022-11-24T09:53:05.978Z,97450.44
2022-11-24T09:55:35.352Z,97456.38
2022-11-24T09:58:41.369Z,97456.50
2022-11-24T10:01:17.165Z,97456.38
2022-11-24T10:03:51.122Z,97461.81
2022-11-24T10:06:24.801Z,97459.06
2022-11-24T10:09:29.354Z,97451.19
2022-11-24T10:12:13.735Z,97447.44
2022-11-24T10:15:30.913Z,97447.47
2022-11-24T10:18:28.059Z,97452.16
2022-11-24T10:21:04.932Z,97447.34
2022-11-24T10:23:53.075Z,97456.59
2022-11-24T10:26:37.195Z,97455.09
2022-11-24T10:29:12.371Z,97450.16
2022-11-24T10:31:44.652Z,97456.09
2022-11-24T10:34:19.116Z,97442.22
2022-11-24T10:36:57.836Z,97451.69
2022-11-24T10:39:29.752Z,97449.41
2022-11-24T10:42:29.320Z,97451.41
2022-11-24T10:45:02.114Z,97451.06
2022-11-24T10:47:32.672Z,97448.22
2022-11-24T10:50:20.341Z,97449.47
2022-11-24T10:52:58.219Z,97457.09
2022-11-24T10:55:56.706Z,97446.41
2022-11-24T10:58:28.779Z,97458.25
2022-11-24T11:01:18.395Z,97450.84
2022-11-24T11:03:55.990Z,97462.78
2022-11-24T11:06:26.210Z,97459.94
2022-11-24T11:09:07.542Z,97463.69
2022-11-24T11:11:39.336Z,97458.78
2022-11-24T11:14:11.211Z,97456.28
2022-11-24T11:16:51.159Z,97463.31
2022-11-24T11:19:54.127Z,97463.75
2022-11-24T11:22:35.685Z,97449.19
2022-11-24T11:25:10.158Z,97458.41
2022-11-24T11:27:41.049Z,97459.22
2022-11-24T11:36:15.918Z,97454.09
2022-11-24T11:38:47.165Z,97441.53
2022-11-24T11:41:28.458Z,97446.66
2022-11-24T11:44:07.320Z,97447.88
2022-11-24T11:46:37.090Z,97446.53
2022-11-24T11:49:09.964Z,97446.78
2022-11-24T11:55:30.207Z,97454.97
2022-11-24T11:58:33.444Z,97458.25
2022-11-24T12:01:14.592Z,97460.06
2022-11-24T12:03:49.827Z,97455.91
2022-11-24T12:06:44.092Z,97452.06
2022-11-24T12:09:41.595Z,97460.31
2022-11-24T12:12:34.448Z,97455.91
2022-11-24T12:15:15.151Z,97459.78
2022-11-24T12:17:55.114Z,97458.53
2022-11-24T12:20:52.863Z,97465.72
2022-11-24T12:23:22.036Z,97458.56
2022-11-24T12:26:01.720Z,97454.31
2022-11-24T12:28:52.373Z,97464.66
2022-11-24T12:31:33.883Z,97473.75
2022-11-24T12:34:24.261Z,97480.03
2022-11-24T12:37:28.804Z,97471.94
2022-11-24T12:40:11.051Z,97481.34
2022-11-24T12:42:59.144Z,97486.81
2022-11-24T12:45:51.891Z,97492.66
2022-11-24T12:48:23.734Z,97492.25
2022-11-24T12:50:56.029Z,97495.03
2022-11-24T12:53:34.826Z,97497.97
2022-11-24T12:56:16.422Z,97503.78
2022-11-24T12:58:55.666Z,97503.59
2022-11-24T13:01:41.036Z,97505.41
2022-11-24T13:04:38.217Z,97519.91
2022-11-24T13:07:16.565Z,97531.38
2022-11-24T13:10:46.973Z,97535.81
2022-11-24T13:13:16.704Z,97537.84
2022-11-24T13:16:34.794Z,97540.44
2022-11-24T13:18:55.939Z,97544.25
2022-11-24T13:21:31.193Z,97542.88
2022-11-24T13:24:03.854Z,97545.69
2022-11-24T13:26:41.664Z,97546.09
2022-11-24T13:29:33.194Z,97552.47
2022-11-24T13:32:02.386Z,97548.50
2022-11-24T13:34:40.613Z,97552.88
2022-11-24T13:37:33.599Z,97556.50
2022-11-24T13:40:14.364Z,97570.69
2022-11-24T13:42:58.888Z,97559.50
2022-11-24T13:45:41.047Z,97570.91
2022-11-24T13:48:19.943Z,97569.53
2022-11-24T13:50:53.336Z,97585.34
2022-11-24T13:53:22.425Z,97587.13
2022-11-24T13:55:58.881Z,97581.16
2022-11-24T13:58:36.934Z,97588.16
2022-11-24T14:01:09.094Z,97592.56
2022-11-24T14:04:32.516Z,97602.19
2022-11-24T14:07:09.559Z,97603.38
2022-11-24T14:09:45.594Z,97613.78
2022-11-24T14:12:17.335Z,97610.56
2022-11-24T14:14:48.594Z,97614.38
2022-11-24T14:17:28.563Z,97625.78
2022-11-24T14:19:58.504Z,97623.00
2022-11-24T14:22:35.956Z,97609.38
2022-11-24T14:25:06.063Z,97623.38
2022-11-24T14:27:38.936Z,97626.97
2022-11-24T14:30:08.330Z,97623.38
2022-11-24T14:32:40.334Z,97628.16
2022-11-24T14:35:23.458Z,97626.97
2022-11-24T14:37:52.797Z,97637.75
2022-11-24T14:40:37.742Z,97628.16
2022-11-24T14:43:16.940Z,97629.97
2022-11-24T14:46:09.415Z,97636.34
2022-11-24T14:48:46.879Z,97634.56
2022-11-24T14:51:24.948Z,97640.13
2022-11-24T14:53:57.867Z,97646.13
2022-11-24T14:56:28.251Z,97649.94
2022-11-24T14:58:59.234Z,97652.94
2022-11-24T15:01:30.329Z,97654.31
2022-11-24T15:07:27.202Z,97668.06
2022-11-24T15:09:59.010Z,97668.88
2022-11-24T15:12:34.431Z,97673.25
2022-11-24T15:15:23.474Z,97672.03
2022-11-24T15:18:00.620Z,97678.03
2022-11-24T15:20:36.206Z,97680.63
2022-11-24T15:23:23.018Z,97689.19
2022-11-24T15:25:54.381Z,97690.75
2022-11-24T15:28:26.162Z,97691.34
2022-11-24T15:30:59.434Z,97694.72
2022-11-24T15:33:29.432Z,97693.94
2022-11-24T15:35:59.809Z,97697.69
2022-11-24T15:38:29.029Z,97693.28
2022-11-24T15:41:00.157Z,97697.44
2022-11-24T15:43:32.135Z,97699.44
2022-11-24T15:46:02.689Z,97703.03
2022-11-24T15:48:32.086Z,97707.59
2022-11-24T15:51:13.002Z,97709.81
2022-11-24T15:53:53.318Z,97688.78
2022-11-24T15:56:31.559Z,97711.78
2022-11-24T15:59:01.567Z,97713.41
2022-11-24T16:01:32.760Z,97715.81
2022-11-24T16:04:02.799Z,97715.56
2022-11-24T16:06:31.920Z,97719.56
2022-11-24T16:09:01.528Z,97718.75
2022-11-24T16:11:30.735Z,97725.75
2022-11-24T16:13:59.864Z,97721.28
2022-11-24T16:16:29.089Z,97734.25
2022-11-24T16:18:58.359Z,97731.44
2022-11-24T16:21:27.893Z,97729.22
2022-11-24T16:23:57.136Z,97733.41
2022-11-24T16:26:26.436Z,97722.81
2022-11-24T16:28:55.630Z,97738.38
2022-11-24T16:31:24.840Z,97739.75
2022-11-24T16:33:53.974Z,97735.94
2022-11-24T16:36:23.342Z,97739.13
2022-11-24T16:38:52.473Z,97745.06
2022-11-24T16:41:21.912Z,97740.03
2022-11-24T16:43:51.264Z,97753.00
2022-11-24T16:46:22.296Z,97751.03
2022-11-24T16:48:53.823Z,97755.22
2022-11-24T16:51:23.876Z,97758.81
2022-11-24T16:54:00.268Z,97755.94
2022-11-24T16:56:30.227Z,97765.56
2022-11-24T16:58:59.308Z,97762.50
2022-11-24T17:01:29.867Z,97770.28
2022-11-24T17:03:59.786Z,97771.66
2022-11-24T17:06:28.935Z,97763.63
2022-11-24T17:08:58.158Z,97768.38
2022-11-24T17:11:28.323Z,97770.59
2022-11-24T17:14:01.050Z,97777.94
2022-11-24T17:16:30.740Z,97778.38
2022-11-24T17:19:00.037Z,97778.75
2022-11-24T17:21:29.264Z,97787.94
2022-11-24T17:24:06.824Z,97789.38
2022-11-24T17:26:36.011Z,97774.97
2022-11-24T17:29:05.158Z,97784.31
2022-11-24T17:31:39.983Z,97786.91
2022-11-24T17:34:11.407Z,97787.09
2022-11-24T17:36:41.878Z,97801.50
2022-11-24T17:39:11.218Z,97796.53
2022-11-24T17:41:40.491Z,97792.72
2022-11-24T17:44:10.744Z,97787.09
2022-11-24T17:46:39.983Z,97795.09
2022-11-24T17:49:13.115Z,97796.72
2022-11-24T17:51:42.372Z,97791.53
2022-11-24T17:54:44.755Z,97803.78
2022-11-24T17:57:00.773Z,97797.78
2022-11-24T17:59:29.973Z,97816.53
2022-11-24T18:01:59.190Z,97812.34
2022-11-24T18:04:28.440Z,97812.16
2022-11-24T18:06:57.532Z,97812.41
2022-11-24T18:09:26.656Z,97818.03
2022-11-24T18:11:56.112Z,97813.22
2022-11-24T18:14:25.185Z,97825.25
2022-11-24T18:16:54.411Z,97829.47
2022-11-24T18:19:23.682Z,97832.88
2022-11-24T18:21:52.769Z,97844.81
2022-11-24T18:24:24.239Z,97838.66
2022-11-24T18:26:53.598Z,97837.03
2022-11-24T18:29:22.824Z,97850.44
2022-11-24T18:31:52.136Z,97844.81
2022-11-24T18:34:24.758Z,97843.28
2022-11-24T18:36:53.889Z,97834.25
2022-11-24T18:39:23.037Z,97843.28
2022-11-24T18:41:52.159Z,97849.59
2022-11-24T18:44:21.327Z,97851.31
2022-11-24T18:46:50.568Z,97852.53
2022-11-24T18:49:19.745Z,97857.38
2022-11-24T18:51:48.945Z,97853.13
2022-11-24T18:54:18.144Z,97864.28
2022-11-24T18:56:47.316Z,97858.66
2022-11-24T18:59:16.421Z,97863.66
2022-11-24T19:01:46.316Z,97853.06
2022-11-24T19:04:15.623Z,97859.94
2022-11-24T19:06:44.835Z,97867.72
2022-11-24T19:09:16.487Z,97866.50
2022-11-24T19:11:46.848Z,97862.41
2022-11-24T19:14:17.914Z,97867.13
2022-11-24T19:16:50.533Z,97869.91
2022-11-24T19:19:19.836Z,97873.94
2022-11-24T19:21:49.173Z,97879.91
2022-11-24T19:24:18.339Z,97884.75
2022-11-24T19:26:47.541Z,97883.13
2022-11-24T19:29:16.660Z,97891.97
2022-11-24T19:31:46.260Z,97891.78
2022-11-24T19:34:15.814Z,97888.22
2022-11-24T19:36:44.973Z,97888.22
2022-11-24T19:39:15.556Z,97894.22
2022-11-24T19:41:44.722Z,97898.75
2022-11-24T19:44:14.238Z,97905.50
2022-11-24T19:46:43.369Z,97905.50
2022-11-24T19:49:12.456Z,97907.53
2022-11-24T19:51:41.637Z,97908.16
2022-11-24T19:54:13.279Z,97906.72
2022-11-24T19:56:42.504Z,97903.97
2022-11-24T19:59:13.452Z,97911.91
2022-11-24T20:01:42.752Z,97915.13
2022-11-24T20:04:15.033Z,97918.53
2022-11-24T20:06:46.305Z,97925.50
2022-11-24T20:09:17.380Z,97919.50
2022-11-24T20:11:46.991Z,97926.31
2022-11-24T20:14:19.102Z,97925.25
2022-11-24T20:16:48.480Z,97931.25
2022-11-24T20:19:18.459Z,97934.00
2022-11-24T20:21:49.421Z,97926.75
2022-11-24T20:24:21.903Z,97940.53
2022-11-24T20:26:54.692Z,97945.53
2022-11-24T20:29:24.167Z,97940.06
2022-11-24T20:31:55.122Z,97944.44
2022-11-24T20:34:25.101Z,97931.84
2022-11-24T20:36:54.406Z,97934.44
2022-11-24T20:39:26.621Z,97944.81
2022-11-24T20:41:56.176Z,97946.75
2022-11-24T20:44:27.385Z,97946.34
2022-11-24T20:46:58.251Z,97950.09
2022-11-24T20:49:28.156Z,97947.59
2022-11-24T20:51:57.554Z,97954.47
2022-11-24T20:54:26.818Z,97953.56
2022-11-24T20:56:56.007Z,97956.69
2022-11-24T20:59:25.840Z,97957.50
2022-11-24T21:01:55.641Z,97964.19
2022-11-24T21:04:26.871Z,97972.47
2022-11-24T21:06:56.545Z,97974.81
2022-11-24T21:09:27.229Z,97974.50
2022-11-24T21:11:56.440Z,97975.22
2022-11-24T21:14:25.652Z,97976.56
2022-11-24T21:16:54.851Z,97976.44
2022-11-24T21:19:24.047Z,97981.78
2022-11-24T21:21:53.155Z,97987.97
2022-11-24T21:24:22.362Z,97993.81
2022-11-24T21:26:52.920Z,97992.56
2022-11-24T21:29:25.643Z,97989.34
2022-11-24T21:31:55.025Z,97996.31
2022-11-24T21:34:24.191Z,97989.56
2022-11-24T21:36:53.260Z,97994.91
2022-11-24T21:39:22.491Z,97999.81
2022-11-24T21:41:51.651Z,98013.41
2022-11-24T21:44:20.850Z,98004.03
2022-11-24T21:46:55.707Z,97999.81
2022-11-24T21:49:25.159Z,98001.78
2022-11-24T21:51:55.987Z,98009.88
2022-11-24T21:54:25.468Z,98014.44
2022-11-24T21:56:54.562Z,98014.94
2022-11-24T21:59:23.743Z,98009.81
2022-11-24T22:01:52.924Z,98028.41
2022-11-24T22:04:22.310Z,98032.13
2022-11-24T22:06:53.198Z,98029.69
2022-11-24T22:09:22.374Z,98043.44
2022-11-24T22:11:53.117Z,98047.00
2022-11-24T22:14:22.268Z,98040.03
2022-11-24T22:16:51.463Z,98049.94
2022-11-24T22:19:20.677Z,98055.59
2022-11-24T22:21:50.040Z,98055.31
2022-11-24T22:24:24.285Z,98055.97
2022-11-24T22:26:56.334Z,98058.88
2022-11-24T22:29:25.629Z,98063.28
2022-11-24T22:31:54.841Z,98074.31
2022-11-24T22:34:23.969Z,98066.06
2022-11-24T22:36:53.231Z,98071.91
2022-11-24T22:39:22.391Z,98069.66
2022-11-24T22:41:51.623Z,98076.75
2022-11-24T22:44:20.770Z,98077.28
2022-11-24T22:46:49.898Z,98070.97
2022-11-24T22:49:19.091Z,98082.44
2022-11-24T22:51:48.184Z,98082.44
2022-11-24T22:54:17.387Z,98086.47
2022-11-24T22:56:46.512Z,98079.84
2022-11-24T22:59:15.732Z,98079.34
2022-11-24T23:01:44.989Z,98082.91
2022-11-24T23:04:14.275Z,98093.88
2022-11-24T23:06:43.508Z,98089.69
2022-11-24T23:09:12.897Z,98095.03
2022-11-24T23:11:42.034Z,98102.25
2022-11-24T23:14:14.148Z,98104.84
2022-11-24T23:16:43.851Z,98105.81
2022-11-24T23:19:13.090Z,98106.50
2022-11-24T23:21:42.262Z,98118.78
2022-11-24T23:24:11.663Z,98115.53
2022-11-24T23:26:41.466Z,98117.50
2022-11-24T23:29:11.696Z,98128.81
2022-11-24T23:31:40.946Z,98123.66
2022-11-24T23:34:10.414Z,98126.72
2022-11-24T23:36:39.582Z,98130.91
2022-11-24T23:39:13.100Z,98127.06
2022-11-24T23:41:42.430Z,98133.34
2022-11-24T23:44:11.566Z,98134.97
2022-11-24T23:46:40.706Z,98127.53
2022-11-24T23:49:10.039Z,98133.66
2022-11-24T23:51:42.099Z,98130.44
2022-11-24T23:56:58.348Z,98133.84
2022-11-24T23:59:27.515Z,98126.25
